Time;durP1;ratioP1;P1;durP2;ratioP2;P2;SDS_P1;SDS_P2;PMS_P1;PMS_P2;Temp;Humidity;BMP_temperature;BMP_pressure;BME280_temperature;BME280_humidity;BME280_pressure;Samples;Min_cycle;Max_cycle;Signal;HPM_P1;HPM_P2
2024/01/17 00:00:05;;;;;;;10.80;7.20;;;;;;;-3.23;100.00;100066.47;1032091;28;20694;-46
2024/01/17 00:01:06;;;;;;;8.42;6.18;;;;;;;-3.23;100.00;100071.69;1024238;28;20342;-45
2024/01/17 00:02:15;;;;;;;15.20;9.20;;;;;;;-3.26;100.00;100059.78;1022092;28;20057;-45
2024/01/17 00:03:10;;;;;;;12.08;7.60;;;;;;;-3.12;100.00;100063.66;1028593;28;20078;-49
2024/01/17 00:04:46;;;;;;;10.58;8.00;;;;;;;-3.17;100.00;100066.69;1025483;28;20538;-46
2024/01/17 00:05:39;;;;;;;10.28;7.30;;;;;;;-3.21;100.00;100072.34;1029877;28;20501;-49
2024/01/17 00:06:39;;;;;;;13.54;7.68;;;;;;;-3.22;100.00;100071.53;1024544;29;20583;-46
2024/01/17 00:07:30;;;;;;;15.68;8.77;;;;;;;-3.12;100.00;100063.66;1024527;28;20113;-46
2024/01/17 00:10:01;;;;;;;18.38;8.46;;;;;;;-3.23;100.00;100066.47;1036277;28;20042;-49
2024/01/17 00:10:51;;;;;;;14.46;8.98;;;;;;;-3.10;100.00;100069.53;1035262;28;20601;-46
2024/01/17 00:11:51;;;;;;;13.68;8.00;;;;;;;-3.03;100.00;100067.16;1030027;28;20038;-46
2024/01/17 00:13:00;;;;;;;13.04;9.54;;;;;;;-3.02;100.00;100064.38;1028034;28;20086;-49
2024/01/17 00:13:47;;;;;;;18.06;8.80;;;;;;;-3.03;100.00;100062.75;1028790;28;20039;-49
2024/01/17 00:14:28;;;;;;;11.06;8.60;;;;;;;-2.98;100.00;100065.75;1035383;28;20042;-45
2024/01/17 00:15:35;;;;;;;14.48;7.47;;;;;;;-3.26;100.00;100058.97;1027556;28;20035;-46
2024/01/17 00:16:39;;;;;;;11.32;7.76;;;;;;;-3.06;100.00;100057.03;1027298;28;20700;-47
2024/01/17 00:18:23;;;;;;;17.00;8.16;;;;;;;-3.05;100.00;100059.47;1026799;28;20348;-47
2024/01/17 00:19:12;;;;;;;16.18;8.68;;;;;;;-3.08;100.00;100059.78;1026671;28;20042;-45
2024/01/17 00:19:57;;;;;;;14.42;8.20;;;;;;;-3.15;100.00;100049.13;1032926;28;20440;-45
2024/01/17 00:20:58;;;;;;;11.48;8.18;;;;;;;-3.12;100.00;100042.81;1029413;28;20415;-49
2024/01/17 00:22:00;;;;;;;13.45;9.23;;;;;;;-3.29;100.00;100041.00;1028962;28;20070;-45
2024/01/17 00:22:55;;;;;;;14.40;10.64;;;;;;;-3.19;100.00;100037.38;1026374;28;20872;-46
2024/01/17 00:24:08;;;;;;;13.93;9.32;;;;;;;-3.15;100.00;100043.09;1027066;28;20039;-49
2024/01/17 00:24:59;;;;;;;15.28;8.20;;;;;;;-3.14;100.00;100040.34;1030404;28;20831;-45
2024/01/17 00:25:47;;;;;;;10.34;7.96;;;;;;;-3.15;100.00;100033.50;1027024;28;20525;-49
2024/01/17 00:26:41;;;;;;;15.30;9.84;;;;;;;-3.21;100.00;100041.09;1020882;29;20067;-49
2024/01/17 00:27:32;;;;;;;11.85;8.45;;;;;;;-3.12;100.00;100048.03;1024514;29;22239;-49
2024/01/17 00:28:24;;;;;;;18.12;9.00;;;;;;;-3.22;100.00;100042.06;1030672;28;20310;-46
2024/01/17 00:29:15;;;;;;;14.60;9.54;;;;;;;-3.24;100.00;100041.41;1030290;28;20047;-49
2024/01/17 00:30:17;;;;;;;18.92;8.85;;;;;;;-3.27;100.00;100033.88;1031498;28;20037;-45
2024/01/17 00:31:27;;;;;;;17.26;9.62;;;;;;;-3.12;100.00;100028.00;1021339;29;20044;-45
2024/01/17 00:32:05;;;;;;;17.22;8.66;;;;;;;-3.23;100.00;100030.00;1027755;28;20134;-49
2024/01/17 00:32:46;;;;;;;16.96;9.16;;;;;;;-3.38;100.00;100021.88;1033782;28;20129;-45
2024/01/17 00:33:31;;;;;;;16.46;10.52;;;;;;;-3.53;100.00;100025.94;1030186;28;20047;-46
2024/01/17 00:34:27;;;;;;;14.54;9.54;;;;;;;-3.52;100.00;100020.59;1020536;29;20583;-49
2024/01/17 00:35:20;;;;;;;14.58;9.34;;;;;;;-3.55;100.00;100015.69;1022277;28;20043;-49
2024/01/17 00:36:04;;;;;;;16.16;9.52;;;;;;;-3.51;100.00;100021.41;1017718;29;20056;-45
2024/01/17 00:36:51;;;;;;;10.28;7.90;;;;;;;-3.62;100.00;100019.81;1020174;28;20039;-48
2024/01/17 00:37:39;;;;;;;15.04;8.54;;;;;;;-3.54;100.00;100022.53;1019935;29;20044;-49
2024/01/17 00:38:40;;;;;;;12.68;10.02;;;;;;;-3.58;100.00;100026.38;1010931;29;20053;-49
2024/01/17 00:39:34;;;;;;;12.34;9.40;;;;;;;-3.49;100.00;100029.91;1014310;29;20095;-45
2024/01/17 00:40:24;;;;;;;19.24;9.36;;;;;;;-3.49;100.00;100025.50;1018413;29;20052;-46
2024/01/17 00:41:20;;;;;;;17.82;8.82;;;;;;;-3.45;100.00;100026.84;1016573;29;20052;-45
2024/01/17 00:42:47;;;;;;;19.30;9.96;;;;;;;-3.32;100.00;100020.47;1014477;29;20182;-45
2024/01/17 00:43:56;;;;;;;16.68;9.18;;;;;;;-3.29;100.00;100020.97;1026994;28;20051;-49
2024/01/17 00:45:06;;;;;;;12.88;8.05;;;;;;;-3.36;100.00;100026.94;1022517;28;20047;-46
2024/01/17 00:45:56;;;;;;;13.76;8.90;;;;;;;-3.43;100.00;100027.53;1015630;29;20068;-49
2024/01/17 00:46:50;;;;;;;11.74;8.04;;;;;;;-3.40;100.00;100023.00;1020058;29;20086;-47
2024/01/17 00:47:37;;;;;;;15.80;9.28;;;;;;;-3.39;100.00;100024.63;1012590;29;20089;-50
2024/01/17 00:48:35;;;;;;;15.02;8.50;;;;;;;-3.42;100.00;100021.34;1022090;29;20506;-45
2024/01/17 00:49:34;;;;;;;13.30;8.38;;;;;;;-3.43;100.00;100009.31;1028753;28;20397;-48
2024/01/17 00:50:18;;;;;;;16.90;9.26;;;;;;;-3.46;100.00;100025.22;1021580;28;20555;-45
2024/01/17 00:50:52;;;;;;;16.68;9.78;;;;;;;-3.47;100.00;100013.16;1026240;28;20187;-52
2024/01/17 00:51:40;;;;;;;14.70;9.84;;;;;;;-3.48;100.00;100011.53;1024227;28;20043;-45
2024/01/17 00:52:41;;;;;;;19.60;10.10;;;;;;;-3.40;100.00;100017.78;1027095;28;20045;-46
2024/01/17 00:53:38;;;;;;;18.06;9.24;;;;;;;-3.48;100.00;100005.50;1020257;29;20070;-49
2024/01/17 00:54:15;;;;;;;14.18;8.15;;;;;;;-3.45;100.00;100000.00;1017303;29;20063;-45
2024/01/17 00:55:19;;;;;;;12.08;8.80;;;;;;;-3.39;100.00;100003.78;1017988;29;20316;-49
2024/01/17 00:56:19;;;;;;;11.40;8.96;;;;;;;-3.38;100.00;99997.63;1023744;28;20062;-48
2024/01/17 00:57:17;;;;;;;17.78;8.86;;;;;;;-3.43;100.00;99985.88;1027193;28;20102;-48
2024/01/17 00:58:29;;;;;;;16.38;8.95;;;;;;;-3.48;100.00;99988.09;1022386;29;20449;-49
2024/01/17 00:59:35;;;;;;;12.64;8.80;;;;;;;-3.49;100.00;99983.03;1023308;29;20071;-49
2024/01/17 01:00:31;;;;;;;19.60;9.52;;;;;;;-3.39;100.00;99989.00;1024895;28;20196;-49
2024/01/17 01:01:18;;;;;;;14.80;8.94;;;;;;;-3.45;100.00;99985.19;1025842;28;20071;-45
2024/01/17 01:02:31;;;;;;;16.34;8.18;;;;;;;-3.43;100.00;99982.44;1016314;29;20048;-51
2024/01/17 01:03:33;;;;;;;12.60;8.82;;;;;;;-3.40;100.00;99986.53;1016068;29;20063;-49
2024/01/17 01:04:55;;;;;;;14.80;8.56;;;;;;;-3.30;100.00;99987.28;1025373;28;20053;-46
2024/01/17 01:06:19;;;;;;;21.48;9.56;;;;;;;-3.20;100.00;99985.44;1030377;28;20062;-49
2024/01/17 01:07:36;;;;;;;19.05;9.07;;;;;;;-3.33;100.00;99992.78;1026668;28;20043;-49
2024/01/17 01:08:24;;;;;;;12.62;8.42;;;;;;;-3.27;100.00;99981.81;1028468;28;20429;-47
2024/01/17 01:09:24;;;;;;;13.54;9.06;;;;;;;-3.24;100.00;99982.31;1023959;29;20043;-47
2024/01/17 01:10:21;;;;;;;10.90;8.32;;;;;;;-3.33;100.00;99977.97;1032534;28;20039;-47
2024/01/17 01:11:41;;;;;;;13.42;9.42;;;;;;;-3.26;100.00;99975.63;1027371;28;20075;-46
2024/01/17 01:12:36;;;;;;;18.73;9.57;;;;;;;-3.19;100.00;99967.06;1017478;29;20072;-49
2024/01/17 01:13:37;;;;;;;10.84;8.68;;;;;;;-3.24;100.00;99971.09;1023520;28;20059;-46
2024/01/17 01:14:28;;;;;;;12.48;7.84;;;;;;;-3.21;100.00;99961.19;1018683;29;20055;-50
2024/01/17 01:15:14;;;;;;;14.50;8.00;;;;;;;-3.19;100.00;99968.84;1027684;28;20441;-49
2024/01/17 01:15:58;;;;;;;11.72;7.78;;;;;;;-3.14;100.00;99962.22;1030381;28;21064;-48
2024/01/17 01:17:00;;;;;;;11.66;8.52;;;;;;;-3.17;100.00;99969.53;1028067;28;20051;-49
2024/01/17 01:17:50;;;;;;;16.44;7.84;;;;;;;-3.18;100.00;99965.28;1022929;28;20075;-48
2024/01/17 01:18:53;;;;;;;17.38;8.05;;;;;;;-3.14;100.00;99964.00;1025848;28;20070;-49
2024/01/17 01:19:52;;;;;;;13.72;8.26;;;;;;;-3.13;100.00;99966.47;1032620;28;20073;-49
2024/01/17 01:20:46;;;;;;;13.48;8.74;;;;;;;-3.17;100.00;99969.53;1032730;28;20134;-49
2024/01/17 01:21:50;;;;;;;;;;;;;;;;;;;;;
2024/01/17 01:22:58;;;;;;;10.22;8.06;;;;;;;-3.19;100.00;99961.03;1031203;28;20306;-49
2024/01/17 01:23:59;;;;;;;15.56;8.82;;;;;;;-3.12;100.00;99957.69;1034160;28;20646;-45
2024/01/17 01:24:44;;;;;;;11.50;7.68;;;;;;;-3.14;100.00;99957.00;1030184;28;20062;-47
2024/01/17 01:25:47;;;;;;;17.30;7.43;;;;;;;-3.11;100.00;99948.06;1021984;29;20692;-46
2024/01/17 01:26:47;;;;;;;18.24;9.12;;;;;;;-3.16;100.00;99958.94;1024316;29;20310;-45
2024/01/17 01:27:32;;;;;;;14.36;9.62;;;;;;;-3.12;100.00;99949.03;1026367;28;20069;-49
2024/01/17 01:28:27;;;;;;;12.24;8.54;;;;;;;-3.19;100.00;99940.19;1019896;29;20130;-49
2024/01/17 01:29:23;;;;;;;17.06;8.96;;;;;;;-3.17;100.00;99935.66;1027804;28;20058;-46
2024/01/17 01:30:08;;;;;;;14.76;9.00;;;;;;;-3.19;100.00;99938.41;1017819;29;20055;-49
2024/01/17 01:30:53;;;;;;;14.30;8.16;;;;;;;-3.15;100.00;99934.53;1011880;29;20049;-49
2024/01/17 01:32:02;;;;;;;12.34;8.16;;;;;;;-3.18;100.00;99928.81;1026236;28;20042;-48
2024/01/17 01:32:53;;;;;;;12.10;8.56;;;;;;;-3.17;100.00;99920.03;1024422;28;20090;-49
2024/01/17 01:34:24;;;;;;;12.95;7.82;;;;;;;-3.21;100.00;99923.91;1022032;29;20044;-48
2024/01/17 01:36:10;;;;;;;12.66;8.24;;;;;;;-3.15;100.00;99923.31;1025644;28;20314;-46
2024/01/17 01:37:00;;;;;;;15.12;8.00;;;;;;;-3.24;100.00;99913.81;1025270;28;20051;-47
2024/01/17 01:38:00;;;;;;;17.76;8.14;;;;;;;-3.24;100.00;99911.19;1027917;28;20053;-47
2024/01/17 01:38:56;;;;;;;13.68;7.47;;;;;;;-3.26;100.00;99913.13;1024766;28;20149;-50
2024/01/17 01:39:40;;;;;;;8.38;7.38;;;;;;;-3.28;100.00;99917.69;1019058;29;20062;-45
2024/01/17 01:40:41;;;;;;;13.50;8.32;;;;;;;-3.22;100.00;99911.88;1018900;29;20071;-49
2024/01/17 01:41:30;;;;;;;13.84;6.86;;;;;;;-3.19;100.00;99911.56;1024556;28;20298;-49
2024/01/17 01:42:36;;;;;;;12.68;8.35;;;;;;;-3.20;100.00;99910.75;1026370;28;20057;-45
2024/01/17 01:43:37;;;;;;;10.72;7.66;;;;;;;-3.23;100.00;99916.25;1031562;28;20302;-49
2024/01/17 01:44:32;;;;;;;9.16;7.58;;;;;;;-3.27;100.00;99909.72;1029985;28;20054;-46
2024/01/17 01:45:32;;;;;;;12.32;8.80;;;;;;;-3.22;100.00;99907.47;1033948;28;20064;-46
2024/01/17 01:46:29;;;;;;;12.52;7.82;;;;;;;-3.23;100.00;99907.63;1030326;28;20489;-46
2024/01/17 01:47:29;;;;;;;10.38;8.18;;;;;;;-3.17;100.00;99909.63;1027890;28;20805;-49
2024/01/17 01:48:22;;;;;;;17.92;7.60;;;;;;;-3.18;100.00;99905.38;1027893;28;20073;-50
2024/01/17 01:49:17;;;;;;;;;;;;;;;;;;;;;
2024/01/17 01:50:24;;;;;;;12.96;7.52;;;;;;;-3.23;100.00;99905.03;1030411;28;20042;-46
2024/01/17 01:51:17;;;;;;;12.74;7.96;;;;;;;-3.17;100.00;99901.81;1028906;28;20050;-49
2024/01/17 01:52:11;;;;;;;14.26;8.38;;;;;;;-3.17;100.00;99904.41;1026305;28;20055;-45
2024/01/17 01:53:05;;;;;;;15.12;8.20;;;;;;;-3.17;100.00;99901.81;1027997;28;20053;-49
2024/01/17 01:54:14;;;;;;;12.30;7.64;;;;;;;-3.17;100.00;99904.41;1033551;28;20046;-49
2024/01/17 01:55:00;;;;;;;11.40;7.68;;;;;;;-3.15;100.00;99907.69;1036549;28;20038;-46
2024/01/17 01:57:09;;;;;;;10.06;7.66;;;;;;;-3.12;100.00;99894.34;1026719;28;20039;-49
2024/01/17 01:58:00;;;;;;;11.43;8.18;;;;;;;-3.17;100.00;99899.19;1030290;28;20042;-46
2024/01/17 01:58:46;;;;;;;19.00;8.02;;;;;;;-3.16;100.00;99900.84;1030765;28;20309;-49
2024/01/17 01:59:31;;;;;;;16.18;9.60;;;;;;;-3.19;100.00;99903.75;1028625;28;20043;-47
2024/01/17 02:00:22;;;;;;;14.82;7.90;;;;;;;-3.15;100.00;99897.25;1024070;28;20047;-49
2024/01/17 02:01:23;;;;;;;15.13;8.60;;;;;;;-3.20;100.00;99894.31;1015707;29;20502;-46
2024/01/17 02:02:16;;;;;;;11.07;8.52;;;;;;;-3.24;100.00;99893.78;1034342;28;20301;-48
2024/01/17 02:03:08;;;;;;;9.00;7.72;;;;;;;-3.26;100.00;99887.09;1033935;28;20297;-46
2024/01/17 02:04:10;;;;;;;16.36;9.14;;;;;;;-3.32;100.00;99890.28;1026672;28;20047;-49
2024/01/17 02:05:01;;;;;;;13.10;8.52;;;;;;;-3.31;100.00;99891.91;1027458;28;20517;-49
2024/01/17 02:06:09;;;;;;;14.05;7.95;;;;;;;-3.31;100.00;99891.91;1022641;28;20043;-48
2024/01/17 02:07:01;;;;;;;16.44;8.10;;;;;;;-3.33;100.00;99889.47;1027545;28;20326;-49
2024/01/17 02:07:58;;;;;;;10.80;8.38;;;;;;;-3.36;100.00;99887.16;1028387;28;20386;-45
2024/01/17 02:09:05;;;;;;;15.88;8.80;;;;;;;-3.33;100.00;99883.44;1028452;28;20336;-49
2024/01/17 02:09:57;;;;;;;11.98;7.56;;;;;;;-3.45;100.00;99875.88;1032982;28;20058;-48
2024/01/17 02:10:58;;;;;;;10.68;8.82;;;;;;;-3.37;100.00;99876.91;1031666;28;20110;-45
2024/01/17 02:12:04;;;;;;;10.98;8.52;;;;;;;-3.55;100.00;99875.13;1028950;28;20055;-45
2024/01/17 02:12:55;;;;;;;16.70;8.65;;;;;;;-3.60;100.00;99872.16;1020582;29;20363;-46
2024/01/17 02:13:49;;;;;;;10.84;8.06;;;;;;;-3.53;100.00;99873.22;1029295;28;20341;-45
2024/01/17 02:14:43;;;;;;;16.68;9.10;;;;;;;-3.57;100.00;99871.03;1036409;28;20053;-45
2024/01/17 02:15:57;;;;;;;17.58;7.94;;;;;;;-3.57;100.00;99869.25;1032916;28;20042;-47
2024/01/17 02:16:47;;;;;;;23.30;8.38;;;;;;;-3.52;100.00;99863.63;1031874;28;20042;-46
2024/01/17 02:17:32;;;;;;;15.26;7.48;;;;;;;-3.58;100.00;99858.97;1031852;28;20394;-49
2024/01/17 02:18:06;;;;;;;19.32;9.90;;;;;;;-3.66;100.00;99856.31;1032917;28;20100;-47
2024/01/17 02:19:10;;;;;;;15.56;8.40;;;;;;;-3.60;100.00;99858.31;1034774;28;20033;-45
2024/01/17 02:20:01;;;;;;;13.32;7.98;;;;;;;-3.55;100.00;99853.50;1034721;28;20034;-49
2024/01/17 02:20:59;;;;;;;15.10;9.73;;;;;;;-3.70;100.00;99858.41;1022197;28;20089;-48
2024/01/17 02:21:47;;;;;;;10.80;7.40;;;;;;;-3.68;100.00;99853.88;1022528;28;20381;-46
2024/01/17 02:23:02;;;;;;;15.42;7.88;;;;;;;-3.76;100.00;99851.19;1028919;28;20086;-49
2024/01/17 02:24:12;;;;;;;14.00;7.70;;;;;;;-3.84;100.00;99861.50;1035417;28;20054;-45
2024/01/17 02:25:17;;;;;;;20.92;8.86;;;;;;;-3.95;100.00;99851.31;1031802;28;20058;-49
2024/01/17 02:26:27;;;;;;;13.52;7.13;;;;;;;-3.93;100.00;99849.38;1032433;28;20058;-50
2024/01/17 02:27:30;;;;;;;9.90;7.68;;;;;;;-3.79;100.00;99852.31;1032726;28;20313;-46
2024/01/17 02:28:58;;;;;;;15.10;8.30;;;;;;;-3.87;100.00;99847.00;1030325;28;20419;-45
2024/01/17 02:29:59;;;;;;;16.34;8.54;;;;;;;-3.77;100.00;99844.34;1030555;28;20389;-45
2024/01/17 02:30:52;;;;;;;11.00;8.58;;;;;;;-3.77;100.00;99836.56;1036878;28;20073;-45
2024/01/17 02:31:43;;;;;;;13.50;7.22;;;;;;;-3.70;100.00;99840.19;1034239;28;20086;-49
2024/01/17 02:33:09;;;;;;;17.46;8.52;;;;;;;-3.78;100.00;99837.53;1025359;28;20059;-46
2024/01/17 02:34:17;;;;;;;14.70;8.24;;;;;;;-3.74;100.00;99838.84;1017218;29;20047;-45
2024/01/17 02:35:03;;;;;;;14.88;8.12;;;;;;;-3.70;100.00;99834.97;1022342;28;20080;-45
2024/01/17 02:35:36;;;;;;;20.62;9.16;;;;;;;-3.75;100.00;99832.84;1028670;28;20039;-45
2024/01/17 02:36:08;;;;;;;16.32;9.46;;;;;;;-3.68;100.00;99830.44;1034387;28;20076;-45
2024/01/17 02:36:40;;;;;;;14.46;9.28;;;;;;;-3.82;100.00;99830.97;1032375;28;20525;-45
2024/01/17 02:37:13;;;;;;;15.32;8.72;;;;;;;-3.86;100.00;99827.84;1032688;28;20050;-51
2024/01/17 02:37:45;;;;;;;13.98;8.66;;;;;;;-3.84;100.00;99827.69;1030091;28;20053;-45
2024/01/17 02:38:16;;;;;;;13.74;11.76;;;;;;;-3.77;100.00;99826.16;1030297;28;20503;-45
2024/01/17 02:38:48;;;;;;;15.98;10.86;;;;;;;-3.76;100.00;99827.78;1030146;28;20050;-45
2024/01/17 02:39:20;;;;;;;12.40;9.32;;;;;;;-3.81;100.00;99824.81;1031695;28;20444;-45
2024/01/17 02:39:52;;;;;;;11.52;8.86;;;;;;;-3.84;100.00;99823.28;1031774;28;20285;-49
2024/01/17 02:40:23;;;;;;;15.30;9.34;;;;;;;-3.84;100.00;99825.09;1035216;28;20033;-49
2024/01/17 02:40:55;;;;;;;13.96;8.92;;;;;;;-3.82;100.00;99821.41;1035682;28;20484;-49
2024/01/17 02:41:27;;;;;;;17.78;10.20;;;;;;;-3.81;100.00;99824.81;1035276;28;20395;-48
2024/01/17 02:41:58;;;;;;;13.50;8.48;;;;;;;-3.79;100.00;99825.47;1034221;28;20123;-49
2024/01/17 02:42:30;;;;;;;24.76;10.88;;;;;;;-3.83;100.00;99824.16;1031256;28;20047;-45
2024/01/17 02:43:02;;;;;;;15.82;9.98;;;;;;;-3.80;100.00;99823.84;1031704;28;20038;-45
2024/01/17 02:43:33;;;;;;;18.18;12.44;;;;;;;-3.74;100.00;99818.03;1035207;28;20297;-45
2024/01/17 02:44:05;;;;;;;16.00;8.50;;;;;;;-3.79;100.00;99820.28;1035148;28;20050;-44
2024/01/17 02:44:37;;;;;;;12.28;8.90;;;;;;;-3.81;100.00;99827.41;1035772;28;20307;-44
2024/01/17 02:45:08;;;;;;;14.26;9.68;;;;;;;-3.78;100.00;99814.09;1035638;28;20059;-44
2024/01/17 02:45:40;;;;;;;14.10;10.22;;;;;;;-3.89;100.00;99815.13;1035347;28;20037;-45
2024/01/17 02:46:12;;;;;;;16.10;8.70;;;;;;;-3.94;100.00;99819.16;1033230;28;20099;-44
2024/01/17 02:46:44;;;;;;;16.92;8.84;;;;;;;-3.90;100.00;99818.69;1026956;28;20073;-45
2024/01/17 02:47:15;;;;;;;13.75;9.60;;;;;;;-3.94;100.00;99811.34;1026775;28;20393;-45
2024/01/17 02:47:47;;;;;;;19.16;9.46;;;;;;;-3.99;100.00;99813.56;1027001;28;20309;-45
2024/01/17 02:48:19;;;;;;;20.36;9.12;;;;;;;-3.93;100.00;99813.78;1029906;28;20047;-45
2024/01/17 02:48:52;;;;;;;17.85;9.80;;;;;;;-3.74;100.00;99812.84;1035531;28;20056;-45
2024/01/17 02:49:23;;;;;;;17.72;9.30;;;;;;;-3.79;100.00;99815.06;1032450;28;20376;-45
2024/01/17 02:49:57;;;;;;;13.22;9.50;;;;;;;-3.76;100.00;99814.78;1033682;28;20042;-44
2024/01/17 02:50:29;;;;;;;13.12;8.22;;;;;;;-3.76;100.00;99809.56;1033265;28;20042;-48
2024/01/17 02:51:01;;;;;;;13.63;7.53;;;;;;;-3.86;100.00;99814.81;1035309;28;20038;-48
2024/01/17 02:51:33;;;;;;;15.20;9.05;;;;;;;-3.79;100.00;99809.88;1031713;28;20301;-48
2024/01/17 02:52:05;;;;;;;17.84;9.90;;;;;;;-3.82;100.00;99803.19;1032067;28;20659;-48
2024/01/17 02:52:37;;;;;;;15.64;9.92;;;;;;;-3.74;100.00;99811.06;1035467;28;20045;-48
2024/01/17 02:53:08;;;;;;;13.20;8.10;;;;;;;-3.78;100.00;99804.50;1032578;28;20091;-51
2024/01/17 02:53:40;;;;;;;12.54;8.94;;;;;;;-3.76;100.00;99805.19;1033649;28;20048;-50
2024/01/17 02:54:12;;;;;;;18.12;11.02;;;;;;;-3.71;100.00;99801.31;1031755;28;20050;-50
2024/01/17 02:54:43;;;;;;;13.34;8.90;;;;;;;-3.78;100.00;99799.31;1034247;28;20053;-49
2024/01/17 02:55:16;;;;;;;12.38;9.43;;;;;;;-3.80;100.00;99795.22;1033962;28;20436;-49
2024/01/17 02:55:48;;;;;;;16.65;10.85;;;;;;;-3.82;100.00;99799.75;1031092;28;20301;-48
2024/01/17 02:56:19;;;;;;;19.70;11.44;;;;;;;-3.85;100.00;99795.66;1031182;28;20663;-48
2024/01/17 02:56:51;;;;;;;17.16;11.44;;;;;;;-3.80;100.00;99793.44;1029966;28;20125;-49
2024/01/17 02:57:23;;;;;;;20.66;11.02;;;;;;;-3.77;100.00;99797.53;1027669;28;20056;-49
2024/01/17 02:57:54;;;;;;;17.75;11.82;;;;;;;-3.81;100.00;99791.00;1037460;28;20037;-49
2024/01/17 02:58:26;;;;;;;13.18;11.54;;;;;;;-3.81;100.00;99796.19;1036046;28;20489;-48
2024/01/17 02:58:57;;;;;;;17.38;11.45;;;;;;;-3.84;100.00;99797.28;1035751;28;20069;-48
2024/01/17 02:59:29;;;;;;;15.98;10.90;;;;;;;-3.83;100.00;99798.94;1039074;28;20300;-49
2024/01/17 03:00:01;;;;;;;17.02;12.00;;;;;;;-3.87;100.00;99787.19;1036066;28;20052;-48
2024/01/17 03:00:33;;;;;;;17.34;11.50;;;;;;;-3.86;100.00;99796.63;1035706;28;20247;-49
2024/01/17 03:01:05;;;;;;;14.88;10.93;;;;;;;-3.75;100.00;99795.59;1030603;28;20078;-48
2024/01/17 03:01:37;;;;;;;15.18;11.23;;;;;;;-3.72;100.00;99797.88;1027432;28;20914;-48
2024/01/17 03:02:09;;;;;;;19.30;11.68;;;;;;;-3.80;100.00;99790.03;1027235;28;20305;-49
2024/01/17 03:02:40;;;;;;;15.98;11.26;;;;;;;-3.72;100.00;99779.69;1029432;28;20042;-49
2024/01/17 03:03:12;;;;;;;15.00;11.34;;;;;;;-3.77;100.00;99781.91;1031303;28;20050;-48
2024/01/17 03:03:44;;;;;;;14.40;11.64;;;;;;;-3.78;100.00;99781.09;1033088;28;20412;-44
2024/01/17 03:04:16;;;;;;;17.70;11.30;;;;;;;-3.78;100.00;99781.09;1033308;28;20046;-44
2024/01/17 03:04:47;;;;;;;20.75;11.48;;;;;;;-3.82;100.00;99778.94;1035893;28;20388;-46
2024/01/17 03:05:19;;;;;;;15.93;10.63;;;;;;;-3.81;100.00;99780.59;1031300;28;20297;-45
2024/01/17 03:05:51;;;;;;;12.77;10.27;;;;;;;-3.75;100.00;99782.59;1031012;28;20348;-44
2024/01/17 03:06:22;;;;;;;19.16;12.30;;;;;;;-3.78;100.00;99782.88;1031523;28;20858;-48
2024/01/17 03:06:54;;;;;;;17.70;12.18;;;;;;;-4.00;100.00;99781.56;1031618;28;20069;-48
2024/01/17 03:07:26;;;;;;;16.70;10.98;;;;;;;-4.09;100.00;99782.44;1034668;28;20676;-48
2024/01/17 03:07:58;;;;;;;18.42;11.20;;;;;;;-3.99;100.00;99772.78;1033358;28;20045;-50
2024/01/17 03:08:29;;;;;;;16.67;10.73;;;;;;;-4.11;100.00;99782.59;1027438;28;20304;-48
2024/01/17 03:09:01;;;;;;;16.90;11.18;;;;;;;-4.06;100.00;99782.16;1027594;28;20309;-51
2024/01/17 03:09:33;;;;;;;15.50;11.04;;;;;;;-4.03;100.00;99781.03;1029401;28;20377;-49
2024/01/17 03:10:07;;;;;;;15.92;9.74;;;;;;;-3.97;100.00;99775.22;1031716;28;20042;-48
2024/01/17 03:10:38;;;;;;;15.13;10.93;;;;;;;-3.95;100.00;99775.91;1034003;28;20058;-49
2024/01/17 03:11:10;;;;;;;14.84;10.92;;;;;;;-3.96;100.00;99776.88;1031719;28;20807;-45
2024/01/17 03:11:42;;;;;;;16.16;10.88;;;;;;;-3.88;100.00;99774.31;1031727;28;20045;-44
2024/01/17 03:12:13;;;;;;;15.42;10.64;;;;;;;-3.88;100.00;99772.53;1034781;28;20046;-45
2024/01/17 03:12:46;;;;;;;18.24;11.00;;;;;;;-3.84;100.00;99779.06;1035644;28;20776;-45
2024/01/17 03:13:17;;;;;;;16.36;10.86;;;;;;;-3.82;100.00;99774.56;1033711;28;20125;-45
2024/01/17 03:13:50;;;;;;;14.80;10.74;;;;;;;-3.83;100.00;99772.94;1031814;28;20515;-44
2024/01/17 03:14:22;;;;;;;15.70;10.60;;;;;;;-3.78;100.00;99775.91;1033466;28;20068;-45
2024/01/17 03:14:54;;;;;;;16.00;10.20;;;;;;;-3.80;100.00;99777.03;1033243;28;20050;-44
2024/01/17 03:15:25;;;;;;;16.60;10.80;;;;;;;-3.77;100.00;99768.91;1035170;28;20037;-45
2024/01/17 03:15:57;;;;;;;15.50;11.82;;;;;;;-3.88;100.00;99763.91;1035315;28;20158;-45
2024/01/17 03:16:29;;;;;;;14.13;10.18;;;;;;;-3.88;100.00;99761.31;1032116;28;20449;-45
2024/01/17 03:17:00;;;;;;;18.06;11.88;;;;;;;-3.79;100.00;99760.44;1031447;28;20305;-49
2024/01/17 03:17:33;;;;;;;15.64;12.02;;;;;;;-3.79;100.00;99763.03;1031484;28;20050;-49
2024/01/17 03:18:08;;;;;;;15.66;11.42;;;;;;;-3.88;100.00;99753.50;1031465;28;20436;-50
2024/01/17 03:18:40;;;;;;;18.48;11.40;;;;;;;-3.94;100.00;99754.94;1027285;28;20237;-45
2024/01/17 03:19:14;;;;;;;18.58;10.90;;;;;;;-3.96;100.00;99758.66;1027440;28;20055;-45
2024/01/17 03:19:47;;;;;;;17.78;10.76;;;;;;;-4.01;100.00;99753.09;1031239;28;20069;-49
2024/01/17 03:20:18;;;;;;;14.86;10.76;;;;;;;-3.96;100.00;99751.66;1031928;28;20046;-49
2024/01/17 03:20:50;;;;;;;16.00;10.94;;;;;;;-3.87;100.00;99755.97;1031754;28;20042;-50
2024/01/17 03:21:22;;;;;;;16.12;9.92;;;;;;;-3.87;100.00;99758.56;1033841;28;20046;-44
2024/01/17 03:21:54;;;;;;;11.56;10.32;;;;;;;-3.77;100.00;99750.69;1035516;28;20038;-45
2024/01/17 03:22:26;;;;;;;12.88;10.40;;;;;;;-3.80;100.00;99758.81;1032973;28;20073;-44
2024/01/17 03:22:57;;;;;;;15.94;10.50;;;;;;;-3.91;100.00;99754.63;1031635;28;20460;-46
2024/01/17 03:23:29;;;;;;;20.68;11.46;;;;;;;-3.76;100.00;99752.31;1031526;28;20135;-45
2024/01/17 03:24:01;;;;;;;15.72;10.98;;;;;;;-3.80;100.00;99753.59;1034418;28;20424;-48
2024/01/17 03:24:36;;;;;;;19.50;12.44;;;;;;;-3.79;100.00;99753.44;1033086;28;20451;-48
2024/01/17 03:25:08;;;;;;;18.88;11.18;;;;;;;-3.78;100.00;99760.28;1032536;28;20559;-45
2024/01/17 03:25:40;;;;;;;15.20;11.22;;;;;;;-3.79;100.00;99750.03;1035229;28;20060;-44
2024/01/17 03:26:11;;;;;;;13.22;11.06;;;;;;;-3.81;100.00;99755.38;1035677;28;20046;-45
2024/01/17 03:26:44;;;;;;;20.10;11.08;;;;;;;-3.77;100.00;99748.09;1033650;28;20068;-44
2024/01/17 03:27:16;;;;;;;16.84;10.90;;;;;;;-3.86;100.00;99752.41;1033314;28;20042;-45
2024/01/17 03:27:47;;;;;;;13.84;10.90;;;;;;;-3.90;100.00;99750.25;1032432;28;20045;-49
2024/01/17 03:28:19;;;;;;;14.62;11.96;;;;;;;-3.91;100.00;99749.44;1030052;28;20046;-50
2024/01/17 03:28:51;;;;;;;17.67;11.20;;;;;;;-3.88;100.00;99748.31;1027949;28;20126;-45
2024/01/17 03:29:22;;;;;;;15.62;10.32;;;;;;;-3.94;100.00;99743.72;1027300;28;20372;-45
2024/01/17 03:29:54;;;;;;;19.28;12.32;;;;;;;-4.04;100.00;99738.59;1027340;28;20047;-45
2024/01/17 03:30:25;;;;;;;14.75;11.07;;;;;;;-4.06;100.00;99737.94;1031199;28;20373;-45
2024/01/17 03:30:57;;;;;;;15.36;10.88;;;;;;;-4.08;100.00;99745.91;1033521;28;20300;-44
2024/01/17 03:31:29;;;;;;;15.48;10.62;;;;;;;-4.08;100.00;99738.09;1034714;28;20064;-51
2024/01/17 03:32:01;;;;;;;13.88;10.62;;;;;;;-4.09;100.00;99746.03;1034054;28;20045;-49
2024/01/17 03:32:32;;;;;;;20.48;10.48;;;;;;;-3.97;100.00;99744.84;1035011;28;20542;-49
2024/01/17 03:33:04;;;;;;;16.70;10.18;;;;;;;-3.89;100.00;99746.69;1035538;28;20054;-46
2024/01/17 03:33:36;;;;;;;17.77;10.63;;;;;;;-3.84;100.00;99747.03;1035353;28;20304;-45
2024/01/17 03:34:08;;;;;;;17.56;12.64;;;;;;;-3.88;100.00;99743.13;1035072;28;20853;-49
2024/01/17 03:34:40;;;;;;;18.98;11.02;;;;;;;-3.93;100.00;99745.34;1034708;28;20042;-48
2024/01/17 03:35:12;;;;;;;16.14;10.40;;;;;;;-3.90;100.00;99752.84;1035548;28;20297;-48
2024/01/17 03:35:44;;;;;;;15.35;11.52;;;;;;;-4.02;100.00;99761.88;1031878;28;20109;-44
2024/01/17 03:36:15;;;;;;;16.33;10.23;;;;;;;-3.91;100.00;99753.81;1029906;28;20327;-45
2024/01/17 03:36:47;;;;;;;15.95;11.95;;;;;;;-3.95;100.00;99758.50;1035414;28;20391;-49
2024/01/17 03:37:18;;;;;;;16.02;11.05;;;;;;;-3.94;100.00;99759.31;1034465;28;20301;-49
2024/01/17 03:37:50;;;;;;;14.00;11.04;;;;;;;-3.94;100.00;99759.31;1035472;28;20387;-48